Time;durP1;ratioP1;P1;durP2;ratioP2;P2;SDS_P1;SDS_P2;PMS_P1;PMS_P2;Temp;Humidity;BMP_temperature;BMP_pressure;BME280_temperature;BME280_humidity;BME280_pressure;Samples;Min_cycle;Max_cycle;Signal;HPM_P1;HPM_P2
2022/12/26 00:01:35;;;;;;;11.80;8.77;;;10.10;99.90;;;;;;5097335;28;20200;-67
2022/12/26 00:04:01;;;;;;;13.97;9.13;;;10.10;99.90;;;;;;5097140;28;20201;-67
2022/12/26 00:06:29;;;;;;;14.43;10.53;;;10.10;99.90;;;;;;5097299;28;20170;-67
2022/12/26 00:08:55;;;;;;;18.73;11.37;;;10.10;99.90;;;;;;5097202;28;20314;-67
2022/12/26 00:11:22;;;;;;;20.00;12.60;;;10.10;99.90;;;;;;5095987;28;20181;-67
2022/12/26 00:13:57;;;;;;;17.63;11.95;;;10.10;99.90;;;;;;5097453;28;20173;-67
2022/12/26 00:16:23;;;;;;;20.83;13.57;;;10.10;99.90;;;;;;5096391;28;20168;-70
2022/12/26 00:18:49;;;;;;;19.73;12.90;;;10.10;99.90;;;;;;5097475;28;20197;-69
2022/12/26 00:21:16;;;;;;;22.13;13.33;;;10.10;99.90;;;;;;5096071;28;20200;-70
2022/12/26 00:23:42;;;;;;;20.70;12.37;;;10.10;99.90;;;;;;5095444;28;20181;-67
2022/12/26 00:26:17;;;;;;;17.97;11.43;;;10.10;99.90;;;;;;5095817;28;20188;-67
2022/12/26 00:28:43;;;;;;;13.02;10.25;;;10.10;99.90;;;;;;5097057;28;20189;-67
2022/12/26 00:31:12;;;;;;;16.13;10.40;;;10.10;99.90;;;;;;5096724;28;20181;-67
2022/12/26 00:33:39;;;;;;;14.53;10.03;;;10.20;99.90;;;;;;5095346;28;20183;-67
2022/12/26 00:36:11;;;;;;;11.23;9.30;;;10.20;99.90;;;;;;5096573;28;20204;-67
2022/12/26 00:38:39;;;;;;;14.87;9.80;;;10.20;99.90;;;;;;5095266;28;20291;-67
2022/12/26 00:41:05;;;;;;;16.20;9.30;;;10.20;99.90;;;;;;5096380;28;20576;-67
2022/12/26 00:43:31;;;;;;;15.03;10.13;;;10.20;99.90;;;;;;5096613;28;20595;-67
2022/12/26 00:45:58;;;;;;;11.97;8.77;;;10.20;99.90;;;;;;5096416;28;20196;-67
2022/12/26 00:48:24;;;;;;;10.97;7.67;;;10.20;99.90;;;;;;5094993;28;20200;-67
2022/12/26 00:50:50;;;;;;;11.83;8.17;;;10.20;99.90;;;;;;5094336;28;20169;-67
2022/12/26 00:53:15;;;;;;;11.07;8.63;;;10.20;99.90;;;;;;5095153;28;20229;-67
2022/12/26 00:55:41;;;;;;;15.23;9.13;;;10.20;99.90;;;;;;5096553;28;20166;-67
2022/12/26 00:58:07;;;;;;;13.07;9.80;;;10.20;99.90;;;;;;5096645;28;20196;-66
2022/12/26 01:00:33;;;;;;;14.10;10.67;;;10.20;99.90;;;;;;5096087;28;20181;-67
2022/12/26 01:02:59;;;;;;;15.97;10.23;;;10.20;99.90;;;;;;5096600;28;20223;-67
2022/12/26 01:05:25;;;;;;;17.03;11.57;;;10.20;99.90;;;;;;5095977;28;20541;-66
2022/12/26 01:07:50;;;;;;;15.90;10.63;;;10.20;99.90;;;;;;5096425;28;20537;-66
2022/12/26 01:10:16;;;;;;;19.20;10.67;;;10.20;99.90;;;;;;5095891;28;20181;-67
2022/12/26 01:12:42;;;;;;;21.90;13.53;;;10.20;99.90;;;;;;5096205;28;20169;-67
2022/12/26 01:15:08;;;;;;;23.60;12.57;;;10.20;99.90;;;;;;5095928;28;20260;-67
2022/12/26 01:17:35;;;;;;;21.60;13.03;;;10.20;99.90;;;;;;5096053;28;20173;-67
2022/12/26 01:20:01;;;;;;;21.27;13.27;;;10.30;99.90;;;;;;5095860;28;20193;-67
2022/12/26 01:22:27;;;;;;;19.50;13.40;;;10.30;99.90;;;;;;5095943;28;20201;-67
2022/12/26 01:24:56;;;;;;;22.43;13.90;;;10.30;99.90;;;;;;5096165;28;20195;-67
2022/12/26 01:27:24;;;;;;;20.17;13.37;;;10.20;99.90;;;;;;5096301;28;20195;-66
2022/12/26 01:29:50;;;;;;;21.67;13.33;;;10.20;99.90;;;;;;5094594;28;20296;-68
2022/12/26 01:32:15;;;;;;;19.63;13.32;;;10.20;99.90;;;;;;5095933;28;20170;-66
2022/12/26 01:34:41;;;;;;;20.73;13.27;;;10.30;99.90;;;;;;5095746;28;20597;-67
2022/12/26 01:37:07;;;;;;;16.70;12.18;;;10.30;99.90;;;;;;5095409;28;20684;-67
2022/12/26 01:39:33;;;;;;;19.97;11.90;;;10.30;99.90;;;;;;5094351;28;20292;-67
2022/12/26 01:41:58;;;;;;;18.60;12.70;;;10.30;99.90;;;;;;5094120;28;20204;-67
2022/12/26 01:44:52;;;;;;;22.07;12.90;;;10.40;99.90;;;;;;5095491;28;20538;-67
2022/12/26 01:47:19;;;;;;;18.23;11.83;;;10.40;99.90;;;;;;5095235;28;20177;-67
2022/12/26 01:49:51;;;;;;;21.00;12.23;;;10.40;99.90;;;;;;5095255;28;20275;-67
2022/12/26 01:52:32;;;;;;;19.70;12.27;;;10.40;99.90;;;;;;5096314;28;20501;-67
2022/12/26 01:54:59;;;;;;;18.20;13.40;;;10.40;99.90;;;;;;5095577;28;20180;-67
2022/12/26 01:57:32;;;;;;;18.20;11.80;;;10.50;99.90;;;;;;5095139;28;20515;-67
2022/12/26 02:00:00;;;;;;;23.50;12.07;;;10.50;99.90;;;;;;5095351;28;20586;-67
2022/12/26 02:02:28;;;;;;;17.52;11.60;;;10.50;99.90;;;;;;5094012;28;20288;-67
2022/12/26 02:07:42;;;;;;;16.30;11.30;;;10.40;99.90;;;;;;5095328;28;20160;-66
2022/12/26 02:10:13;;;;;;;16.27;10.77;;;10.50;99.90;;;;;;5094901;28;20212;-66
2022/12/26 02:12:39;;;;;;;16.50;11.15;;;10.50;99.90;;;;;;5094992;28;20636;-67
2022/12/26 02:15:15;;;;;;;19.88;10.48;;;10.50;99.90;;;;;;5095427;28;20207;-67
2022/12/26 02:17:41;;;;;;;14.48;9.77;;;10.50;99.90;;;;;;5094558;28;20651;-68
2022/12/26 02:20:24;;;;;;;18.02;11.80;;;10.50;99.90;;;;;;5094610;28;20520;-67
2022/12/26 02:22:56;;;;;;;16.58;10.48;;;10.40;99.90;;;;;;5094730;28;20271;-66
2022/12/26 02:25:49;;;;;;;15.03;10.73;;;10.40;99.90;;;;;;5094670;28;20181;-67
2022/12/26 02:28:45;;;;;;;16.73;11.03;;;10.40;99.90;;;;;;5094761;28;20185;-67
2022/12/26 02:31:21;;;;;;;17.37;11.90;;;10.40;99.90;;;;;;5095525;28;20169;-67
2022/12/26 02:33:59;;;;;;;14.87;11.07;;;10.40;99.90;;;;;;5095419;28;20153;-67
2022/12/26 02:36:55;;;;;;;19.83;11.97;;;10.30;99.90;;;;;;5096093;28;20177;-66
2022/12/26 02:39:36;;;;;;;18.40;12.30;;;10.30;99.90;;;;;;5095747;28;20227;-66
2022/12/26 02:42:47;;;;;;;24.77;12.60;;;10.40;99.90;;;;;;5095590;28;20193;-67
2022/12/26 02:48:31;;;;;;;20.90;13.43;;;10.30;99.90;;;;;;5094971;28;20188;-67
2022/12/26 03:14:40;;;;;;;21.67;13.33;;;10.20;99.90;;;;;;5094425;28;20165;-69
2022/12/26 03:17:20;;;;;;;20.57;13.37;;;10.20;99.90;;;;;;5094548;28;20168;-69
2022/12/26 03:20:10;;;;;;;23.03;14.23;;;10.20;99.90;;;;;;5094141;28;20652;-69
2022/12/26 03:23:02;;;;;;;24.83;15.27;;;10.20;99.90;;;;;;5092272;28;20216;-69
2022/12/26 03:28:19;;;;;;;49.83;25.43;;;10.10;99.90;;;;;;5093888;28;20196;-69
2022/12/26 03:30:48;;;;;;;45.53;26.37;;;10.10;99.90;;;;;;5093977;28;20180;-69
2022/12/26 03:36:33;;;;;;;36.93;21.77;;;10.20;99.90;;;;;;5093693;28;20319;-69
2022/12/26 04:21:04;;;;;;;20.23;13.40;;;10.10;99.90;;;;;;5093311;28;20234;-68
2022/12/26 04:46:21;;;;;;;6.53;5.37;;;9.90;99.90;;;;;;5096879;28;20546;-68
2022/12/26 04:51:33;;;;;;;5.47;4.67;;;9.90;99.90;;;;;;5096799;28;20640;-68
2022/12/26 04:53:58;;;;;;;5.00;4.60;;;9.90;99.90;;;;;;5095163;28;20185;-68
2022/12/26 04:56:24;;;;;;;4.77;4.37;;;9.90;99.90;;;;;;5096609;28;20602;-68
2022/12/26 04:58:50;;;;;;;5.03;4.53;;;9.90;99.90;;;;;;5097352;28;20660;-67
2022/12/26 05:09:35;;;;;;;4.73;4.33;;;9.70;99.90;;;;;;5096456;28;20231;-67
2022/12/26 05:12:03;;;;;;;5.00;4.57;;;9.70;99.90;;;;;;5096889;28;20164;-68
2022/12/26 05:14:30;;;;;;;4.97;4.32;;;9.70;99.90;;;;;;5096036;28;20256;-67
2022/12/26 05:30:47;;;;;;;6.07;5.07;;;9.50;99.90;;;;;;5095943;28;20192;-67
2022/12/26 05:35:57;;;;;;;5.60;5.10;;;9.40;99.90;;;;;;5095119;28;20172;-67
2022/12/26 05:38:23;;;;;;;5.40;4.85;;;9.40;99.90;;;;;;5094184;28;20261;-67
2022/12/26 05:40:49;;;;;;;5.70;5.20;;;9.40;99.90;;;;;;5095641;28;20259;-67
2022/12/26 05:43:14;;;;;;;6.83;5.03;;;9.30;99.90;;;;;;5095894;28;20561;-67
2022/12/26 05:45:40;;;;;;;6.00;5.10;;;9.30;99.90;;;;;;5095400;28;20166;-67
2022/12/26 05:48:06;;;;;;;8.80;5.60;;;9.40;99.90;;;;;;5095553;28;20688;-67
2022/12/26 05:50:32;;;;;;;6.73;5.50;;;9.40;99.90;;;;;;5095158;28;20181;-67
2022/12/26 05:52:58;;;;;;;8.07;5.80;;;9.40;99.90;;;;;;5095580;28;20181;-67
2022/12/26 05:55:24;;;;;;;6.83;5.83;;;9.40;99.90;;;;;;5095043;28;20552;-67
2022/12/26 05:57:50;;;;;;;6.07;5.47;;;9.40;99.90;;;;;;5095180;28;20260;-67
2022/12/26 06:00:16;;;;;;;10.23;6.20;;;9.40;99.90;;;;;;5095040;28;20259;-67
2022/12/26 06:02:42;;;;;;;8.57;6.30;;;9.30;99.90;;;;;;5095241;28;20611;-67
2022/12/26 06:05:08;;;;;;;8.20;6.00;;;9.30;99.90;;;;;;5094918;28;20182;-67
2022/12/26 06:07:34;;;;;;;6.50;5.47;;;9.40;99.90;;;;;;5094821;28;20271;-67
2022/12/26 06:09:59;;;;;;;6.13;5.57;;;9.40;99.90;;;;;;5093556;28;20193;-67
2022/12/26 06:12:25;;;;;;;6.23;5.30;;;9.40;99.90;;;;;;5095146;28;20181;-67
2022/12/26 06:14:51;;;;;;;6.70;6.00;;;9.40;99.90;;;;;;5093559;28;20177;-67
2022/12/26 06:17:16;;;;;;;7.37;5.47;;;9.50;99.90;;;;;;5095494;28;20259;-67
2022/12/26 06:19:42;;;;;;;7.40;4.80;;;9.70;99.90;;;;;;5093495;28;20237;-67
2022/12/26 06:22:08;;;;;;;5.57;4.70;;;9.70;99.90;;;;;;5093131;28;20236;-67
2022/12/26 06:24:34;;;;;;;5.37;4.87;;;9.70;99.90;;;;;;5094606;28;20633;-67
2022/12/26 06:27:00;;;;;;;4.67;4.27;;;9.70;99.90;;;;;;5094764;28;20185;-67
2022/12/26 06:29:25;;;;;;;4.97;4.57;;;9.70;99.90;;;;;;5093269;28;20199;-67
2022/12/26 06:31:51;;;;;;;5.10;4.60;;;9.60;99.90;;;;;;5094451;28;20191;-66
2022/12/26 06:34:17;;;;;;;5.57;4.47;;;9.70;99.90;;;;;;5093028;28;20210;-67
2022/12/26 06:36:43;;;;;;;4.63;4.23;;;9.70;99.90;;;;;;5094423;28;20165;-67
2022/12/26 06:39:09;;;;;;;4.07;3.77;;;9.70;99.90;;;;;;5094490;28;20664;-67
2022/12/26 06:41:34;;;;;;;4.93;4.53;;;9.70;99.90;;;;;;5094346;28;20215;-67
2022/12/26 06:44:00;;;;;;;5.50;4.20;;;9.70;99.90;;;;;;5093670;28;20168;-65
2022/12/26 06:46:26;;;;;;;5.10;4.60;;;9.60;99.90;;;;;;5094081;28;20196;-65
2022/12/26 06:48:52;;;;;;;5.13;4.60;;;9.60;99.90;;;;;;5092159;28;20215;-65
2022/12/26 06:51:21;;;;;;;5.23;4.73;;;9.50;99.90;;;;;;5092572;28;20184;-65
2022/12/26 06:53:48;;;;;;;5.10;4.60;;;9.50;99.90;;;;;;5093956;28;20174;-65
2022/12/26 06:56:19;;;;;;;6.43;5.23;;;9.50;99.90;;;;;;5094181;28;20185;-65
2022/12/26 06:58:46;;;;;;;5.90;5.30;;;9.50;99.90;;;;;;5094102;28;20684;-65
2022/12/26 07:01:14;;;;;;;9.17;5.70;;;9.40;99.90;;;;;;5092303;28;20238;-65
2022/12/26 07:03:41;;;;;;;9.80;6.20;;;9.40;99.90;;;;;;5092450;28;20643;-65
2022/12/26 07:06:36;;;;;;;6.83;5.57;;;9.40;99.90;;;;;;5093633;28;20183;-65
2022/12/26 07:09:11;;;;;;;6.47;5.67;;;9.40;99.90;;;;;;5093692;28;20192;-65
2022/12/26 07:11:39;;;;;;;7.77;6.97;;;9.40;99.90;;;;;;5094415;28;20500;-65
2022/12/26 07:14:05;;;;;;;7.63;5.93;;;9.40;99.90;;;;;;5094054;28;20511;-65
2022/12/26 07:16:33;;;;;;;6.80;6.10;;;9.40;99.90;;;;;;5093575;28;20204;-65
2022/12/26 07:18:59;;;;;;;7.33;6.13;;;9.40;99.90;;;;;;5093553;28;20203;-65
2022/12/26 07:21:26;;;;;;;6.53;5.90;;;9.40;99.90;;;;;;5093367;28;20268;-65
2022/12/26 07:23:53;;;;;;;8.73;6.37;;;9.40;99.90;;;;;;5093445;28;20185;-65
2022/12/26 07:26:18;;;;;;;6.30;5.70;;;9.40;99.90;;;;;;5093651;28;20248;-65
2022/12/26 07:28:44;;;;;;;6.87;6.07;;;9.40;99.90;;;;;;5092494;28;20283;-68
2022/12/26 07:31:18;;;;;;;8.10;6.30;;;9.40;99.90;;;;;;5093796;28;20181;-68
2022/12/26 07:33:53;;;;;;;8.90;5.97;;;9.50;99.90;;;;;;5092332;28;20177;-66
2022/12/26 07:36:19;;;;;;;8.67;6.40;;;9.50;99.90;;;;;;5092175;28;20547;-65
2022/12/26 07:38:46;;;;;;;8.40;6.60;;;9.60;99.90;;;;;;5093396;28;20276;-66
2022/12/26 07:43:56;;;;;;;8.50;6.33;;;9.70;99.90;;;;;;5094183;28;20172;-67
2022/12/26 07:46:22;;;;;;;6.97;6.27;;;9.80;99.90;;;;;;5092444;28;20184;-66
2022/12/26 07:48:48;;;;;;;8.30;6.07;;;9.80;99.90;;;;;;5093387;28;20569;-66
2022/12/26 07:51:14;;;;;;;7.37;6.20;;;9.80;99.90;;;;;;5093921;28;20177;-65
2022/12/26 07:53:39;;;;;;;6.70;5.90;;;9.80;99.90;;;;;;5093733;28;20199;-65
2022/12/26 07:56:05;;;;;;;8.53;6.27;;;9.80;99.90;;;;;;5093696;28;20181;-65
2022/12/26 07:58:31;;;;;;;7.57;6.30;;;9.70;99.90;;;;;;5094461;28;20653;-65
2022/12/26 08:01:02;;;;;;;6.95;6.05;;;9.70;99.90;;;;;;5097523;28;20264;-65
2022/12/26 08:03:28;;;;;;;6.37;5.77;;;9.70;99.90;;;;;;5097945;28;20214;-65
2022/12/26 08:05:54;;;;;;;7.40;6.47;;;9.70;99.90;;;;;;5097228;28;20553;-65
2022/12/26 08:08:20;;;;;;;6.87;6.17;;;9.70;99.90;;;;;;5097621;28;20197;-65
2022/12/26 08:10:46;;;;;;;8.80;6.37;;;9.70;99.90;;;;;;5097346;28;20173;-66
2022/12/26 08:13:12;;;;;;;8.30;6.73;;;9.70;99.90;;;;;;5097604;28;20280;-66
2022/12/26 08:15:39;;;;;;;9.10;7.03;;;9.70;99.90;;;;;;5097250;28;20684;-65
2022/12/26 08:18:05;;;;;;;9.73;7.63;;;9.80;99.90;;;;;;5097385;28;20204;-65
2022/12/26 08:20:32;;;;;;;8.63;7.50;;;9.80;99.90;;;;;;5097869;28;20240;-65
2022/12/26 08:22:58;;;;;;;9.07;7.13;;;9.80;99.90;;;;;;5097750;28;20690;-65
2022/12/26 08:25:23;;;;;;;8.30;6.90;;;9.70;99.90;;;;;;5097547;28;20268;-65
2022/12/26 08:27:49;;;;;;;12.00;7.03;;;9.80;99.90;;;;;;5097901;28;20636;-65
2022/12/26 08:30:15;;;;;;;7.63;6.80;;;9.80;99.90;;;;;;5098168;28;20549;-64
2022/12/26 08:32:41;;;;;;;9.53;7.13;;;9.80;99.90;;;;;;5097862;28;20191;-65
2022/12/26 08:35:08;;;;;;;8.27;6.93;;;9.70;99.90;;;;;;5099639;28;20177;-65
2022/12/26 08:37:33;;;;;;;11.93;7.53;;;9.70;99.90;;;;;;5098282;28;20173;-65
2022/12/26 08:39:59;;;;;;;9.87;7.50;;;9.70;99.90;;;;;;5096573;28;20691;-65
2022/12/26 08:42:25;;;;;;;7.57;6.83;;;9.70;99.90;;;;;;5097229;28;20200;-65
2022/12/26 08:44:51;;;;;;;8.13;7.03;;;9.70;99.90;;;;;;5097481;28;20177;-65
2022/12/26 08:47:16;;;;;;;7.60;6.80;;;9.80;99.90;;;;;;5095564;28;20177;-65
2022/12/26 08:49:42;;;;;;;7.87;7.07;;;9.80;99.90;;;;;;5096629;28;20232;-65
2022/12/26 08:52:08;;;;;;;7.57;6.47;;;9.80;99.90;;;;;;5096361;28;20181;-65
2022/12/26 08:54:34;;;;;;;6.90;6.03;;;9.80;99.90;;;;;;5096824;28;20173;-65
2022/12/26 08:56:59;;;;;;;6.70;6.07;;;9.80;99.90;;;;;;5095237;28;20209;-65
2022/12/26 08:59:25;;;;;;;6.57;5.43;;;9.80;99.90;;;;;;5096187;28;20192;-65
2022/12/26 09:01:51;;;;;;;5.70;5.30;;;9.80;99.90;;;;;;5095961;28;20216;-65
2022/12/26 09:04:17;;;;;;;6.43;5.20;;;9.90;99.90;;;;;;5096056;28;20177;-65
2022/12/26 09:06:42;;;;;;;5.30;4.80;;;9.90;99.90;;;;;;5094850;28;20177;-65
2022/12/26 09:09:10;;;;;;;5.53;5.00;;;9.90;99.90;;;;;;5096455;28;20322;-66
2022/12/26 09:11:36;;;;;;;6.77;4.77;;;9.90;99.90;;;;;;5094230;28;20549;-65
2022/12/26 09:14:03;;;;;;;7.33;4.50;;;10.00;99.90;;;;;;5094713;28;20173;-65
2022/12/26 09:16:32;;;;;;;4.50;4.20;;;9.90;99.90;;;;;;5096273;28;20527;-65
2022/12/26 09:19:00;;;;;;;4.70;4.20;;;10.00;99.90;;;;;;5096245;28;20275;-66
2022/12/26 09:21:26;;;;;;;4.53;4.13;;;10.00;99.90;;;;;;5095770;28;20184;-65
2022/12/26 09:24:12;;;;;;;5.20;3.97;;;10.00;99.90;;;;;;5100435;27;20670;-66
2022/12/26 09:26:38;;;;;;;4.07;3.70;;;10.00;99.90;;;;;;5136748;27;20207;-67
2022/12/26 09:29:04;;;;;;;3.90;3.60;;;10.00;99.90;;;;;;5136277;27;20215;-67
2022/12/26 09:31:32;;;;;;;4.20;3.80;;;10.00;99.90;;;;;;5146978;27;20737;-70
2022/12/26 09:34:01;;;;;;;6.30;3.70;;;9.90;99.90;;;;;;5104744;27;20200;-70
2022/12/26 09:36:29;;;;;;;5.93;3.87;;;9.90;99.90;;;;;;5095978;28;20192;-70
2022/12/26 09:38:57;;;;;;;4.57;3.43;;;9.90;99.90;;;;;;5077964;28;20200;-70
2022/12/26 09:41:44;;;;;;;4.40;4.00;;;9.90;99.90;;;;;;5077755;28;20181;-67
2022/12/26 09:44:10;;;;;;;4.13;3.70;;;9.90;99.90;;;;;;5077467;28;20191;-67
2022/12/26 09:46:56;;;;;;;3.97;3.67;;;9.90;99.90;;;;;;5096031;28;20173;-67
2022/12/26 09:49:29;;;;;;;3.77;3.37;;;9.90;99.90;;;;;;5095146;28;20189;-74
2022/12/26 09:51:59;;;;;;;5.47;3.40;;;10.00;99.90;;;;;;5077625;28;20175;-70
2022/12/26 09:54:40;;;;;;;4.07;3.43;;;10.00;99.90;;;;;;5096223;28;20204;-68
2022/12/26 09:57:13;;;;;;;4.40;3.60;;;10.00;99.90;;;;;;5095988;28;20598;-75
2022/12/26 10:00:03;;;;;;;4.30;3.57;;;9.90;99.90;;;;;;5095356;28;20561;-67
2022/12/26 10:02:29;;;;;;;5.80;3.90;;;9.90;99.90;;;;;;5076794;28;20744;-66
2022/12/26 10:04:55;;;;;;;4.30;4.00;;;10.00;99.90;;;;;;5095178;28;20625;-66
2022/12/26 10:07:29;;;;;;;8.07;3.90;;;10.00;99.90;;;;;;5095010;28;20173;-66
2022/12/26 10:09:55;;;;;;;4.10;3.80;;;10.10;99.90;;;;;;5094929;28;20192;-66
2022/12/26 10:12:56;;;;;;;3.72;3.20;;;10.10;99.90;;;;;;5076900;28;20184;-66
2022/12/26 10:15:40;;;;;;;5.82;3.35;;;10.10;99.90;;;;;;5090835;28;20236;-66
2022/12/26 10:18:14;;;;;;;3.87;3.57;;;10.10;99.90;;;;;;5076950;28;20211;-66
2022/12/26 10:20:59;;;;;;;4.40;3.70;;;10.00;99.90;;;;;;5095252;28;20730;-65
2022/12/26 10:23:38;;;;;;;13.37;3.20;;;10.10;99.90;;;;;;5094562;28;20238;-65
2022/12/26 10:26:13;;;;;;;3.50;3.30;;;10.20;99.90;;;;;;5076630;28;20222;-65
2022/12/26 10:28:45;;;;;;;3.45;3.25;;;10.30;99.90;;;;;;5076651;28;20225;-65
2022/12/26 10:31:30;;;;;;;4.20;3.50;;;10.40;99.90;;;;;;5076391;28;20185;-65
2022/12/26 10:34:29;;;;;;;4.60;3.30;;;10.50;99.90;;;;;;5104414;27;20195;-65
2022/12/26 10:37:15;;;;;;;4.55;3.35;;;10.50;99.90;;;;;;5135071;27;20176;-65
2022/12/26 10:40:11;;;;;;;7.25;3.28;;;10.50;99.90;;;;;;5135648;27;20753;-65
2022/12/26 10:42:39;;;;;;;4.80;3.10;;;10.50;99.90;;;;;;5135603;27;20245;-66
2022/12/26 10:45:19;;;;;;;3.80;3.40;;;10.60;99.90;;;;;;5135475;27;20153;-64
2022/12/26 10:47:55;;;;;;;3.83;3.40;;;10.50;99.90;;;;;;5135404;27;20195;-65
2022/12/26 10:50:29;;;;;;;3.75;3.45;;;10.50;99.90;;;;;;5135497;27;20217;-64
2022/12/26 10:52:57;;;;;;;4.03;3.53;;;10.50;99.90;;;;;;5135209;27;20195;-64
2022/12/26 10:55:29;;;;;;;3.50;3.20;;;10.60;99.90;;;;;;5116524;27;20183;-63
2022/12/26 10:58:17;;;;;;;3.87;3.00;;;10.60;99.90;;;;;;5135216;27;20552;-64
2022/12/26 11:00:43;;;;;;;4.78;3.70;;;10.50;99.90;;;;;;5099014;27;20195;-65
2022/12/26 11:03:14;;;;;;;3.63;3.20;;;10.50;99.90;;;;;;5135616;27;20202;-64
2022/12/26 11:05:53;;;;;;;3.43;3.10;;;10.40;99.90;;;;;;5116815;27;20175;-67
2022/12/26 11:08:31;;;;;;;3.50;3.20;;;10.40;99.90;;;;;;5134984;27;20191;-65
2022/12/26 11:11:24;;;;;;;3.55;3.22;;;10.40;99.90;;;;;;5116463;27;20172;-65
2022/12/26 11:13:58;;;;;;;3.63;3.33;;;10.40;99.90;;;;;;5115327;27;20696;-65
2022/12/26 11:16:30;;;;;;;7.13;3.60;;;10.40;99.90;;;;;;5135370;27;20551;-65
2022/12/26 11:18:57;;;;;;;3.60;3.30;;;10.50;99.90;;;;;;5134808;27;20192;-66
2022/12/26 11:21:26;;;;;;;4.40;3.37;;;10.50;99.90;;;;;;5134438;27;20174;-65
2022/12/26 11:24:10;;;;;;;4.00;3.60;;;10.50;99.90;;;;;;5134569;27;20258;-65
2022/12/26 11:26:37;;;;;;;6.22;3.60;;;10.50;99.90;;;;;;5134694;27;20676;-65
2022/12/26 11:29:09;;;;;;;5.07;3.20;;;10.50;99.90;;;;;;5134223;27;20215;-66
2022/12/26 11:31:35;;;;;;;5.28;3.55;;;10.60;99.90;;;;;;5115774;28;20195;-65
2022/12/26 11:34:06;;;;;;;3.92;3.47;;;10.60;99.90;;;;;;5131815;27;20191;-65
2022/12/26 11:36:33;;;;;;;4.07;3.13;;;10.60;99.90;;;;;;5115805;28;20598;-67
2022/12/26 11:39:20;;;;;;;3.47;3.15;;;10.60;99.90;;;;;;5134554;28;20332;-72
2022/12/26 11:41:48;;;;;;;4.93;3.37;;;10.60;99.90;;;;;;5134924;28;20197;-72
2022/12/26 11:44:32;;;;;;;3.58;2.90;;;10.50;99.90;;;;;;5116968;28;20179;-75
2022/12/26 11:47:00;;;;;;;4.85;3.20;;;10.60;99.90;;;;;;5116535;28;20581;-71
2022/12/26 11:49:49;;;;;;;4.03;3.28;;;10.60;99.90;;;;;;5116262;28;20252;-74
2022/12/26 11:52:36;;;;;;;3.50;3.20;;;10.70;99.90;;;;;;5106212;28;20636;-71
2022/12/26 11:55:22;;;;;;;9.90;3.93;;;10.70;99.90;;;;;;5135588;28;20201;-73
2022/12/26 11:58:07;;;;;;;5.63;3.40;;;10.70;99.90;;;;;;5134024;28;20168;-66
2022/12/26 12:00:42;;;;;;;3.47;3.17;;;10.70;99.90;;;;;;5134063;28;20270;-65
2022/12/26 12:03:14;;;;;;;4.53;3.30;;;10.70;99.90;;;;;;5134327;28;20179;-66
2022/12/26 12:06:14;;;;;;;4.17;3.27;;;10.80;99.90;;;;;;5134379;28;20607;-65
2022/12/26 12:09:01;;;;;;;4.30;3.30;;;10.80;99.90;;;;;;5134034;28;20195;-66
2022/12/26 12:11:52;;;;;;;3.10;2.80;;;10.80;99.90;;;;;;5133977;28;20168;-68
2022/12/26 12:14:21;;;;;;;4.03;3.08;;;10.80;99.90;;;;;;5134122;28;20171;-68
2022/12/26 12:17:04;;;;;;;4.80;3.10;;;10.80;99.90;;;;;;5134237;28;20159;-67
2022/12/26 12:19:49;;;;;;;3.37;3.00;;;10.80;99.90;;;;;;5134178;28;20262;-68
2022/12/26 12:22:32;;;;;;;3.53;3.22;;;10.70;99.90;;;;;;5118780;28;20199;-69
2022/12/26 12:25:46;;;;;;;3.83;3.53;;;10.60;99.90;;;;;;5116876;28;20188;-66
2022/12/26 12:29:00;;;;;;;3.50;3.30;;;10.60;99.90;;;;;;5076322;28;20216;-65
2022/12/26 12:31:44;;;;;;;3.53;3.22;;;10.60;99.90;;;;;;5127289;28;20183;-67
2022/12/26 12:35:00;;;;;;;3.50;3.20;;;10.50;99.90;;;;;;5109356;28;20193;-69
2022/12/26 12:37:52;;;;;;;6.00;3.73;;;10.40;99.90;;;;;;5070729;28;20707;-69
2022/12/26 12:40:24;;;;;;;4.33;3.40;;;10.30;99.90;;;;;;5093289;28;20193;-68
2022/12/26 12:43:22;;;;;;;9.23;4.67;;;10.20;99.90;;;;;;5091916;28;20202;-69
2022/12/26 12:46:18;;;;;;;3.33;3.13;;;10.10;99.90;;;;;;5085253;28;20219;-68
2022/12/26 12:49:05;;;;;;;4.07;3.40;;;10.10;99.90;;;;;;5096787;28;20193;-68
2022/12/26 12:51:36;;;;;;;10.33;4.00;;;10.10;99.90;;;;;;5095044;28;20258;-69
2022/12/26 12:54:27;;;;;;;3.93;3.10;;;10.10;99.90;;;;;;5096496;28;20165;-69
2022/12/26 12:57:02;;;;;;;6.13;3.77;;;10.10;99.90;;;;;;5095340;28;20199;-68
2022/12/26 12:59:34;;;;;;;3.60;3.30;;;10.10;99.90;;;;;;5095363;28;20253;-69
2022/12/26 13:02:10;;;;;;;4.23;3.40;;;10.20;99.90;;;;;;5095385;28;20208;-68
2022/12/26 13:04:47;;;;;;;5.60;3.30;;;10.20;99.90;;;;;;5095090;28;20169;-69
2022/12/26 13:07:20;;;;;;;3.57;3.27;;;10.20;99.90;;;;;;5096151;28;20245;-69
2022/12/26 13:09:56;;;;;;;4.10;3.20;;;10.10;99.90;;;;;;5096377;28;20192;-68
2022/12/26 13:12:34;;;;;;;3.60;3.30;;;10.10;99.90;;;;;;5096709;28;20180;-68
2022/12/26 13:15:16;;;;;;;6.63;3.53;;;10.00;99.90;;;;;;5096503;28;20259;-69
2022/12/26 13:18:25;;;;;;;6.73;4.10;;;10.00;99.90;;;;;;5095071;28;20177;-69
2022/12/26 13:21:11;;;;;;;9.17;4.67;;;10.00;99.90;;;;;;5096725;28;20192;-69
2022/12/26 13:24:29;;;;;;;6.80;4.23;;;10.00;99.90;;;;;;5096896;28;20234;-69
2022/12/26 13:27:13;;;;;;;3.83;3.43;;;9.90;99.90;;;;;;5083214;28;20185;-69
2022/12/26 13:29:40;;;;;;;3.93;3.63;;;10.00;99.90;;;;;;5095912;28;20227;-69
2022/12/26 13:32:20;;;;;;;3.83;3.53;;;9.90;99.90;;;;;;5096127;28;20185;-71
2022/12/26 13:34:47;;;;;;;3.90;3.60;;;9.30;99.90;;;;;;5096335;28;20272;-71
2022/12/26 13:37:37;;;;;;;3.93;3.63;;;9.00;99.90;;;;;;5094717;28;20161;-69
2022/12/26 13:40:09;;;;;;;5.00;3.80;;;8.60;99.90;;;;;;5095474;28;20564;-69
2022/12/26 13:45:41;;;;;;;5.53;4.20;;;8.40;99.90;;;;;;5097687;28;20195;-70
2022/12/26 13:48:16;;;;;;;5.80;4.27;;;8.30;99.90;;;;;;5097010;28;20195;-73
2022/12/26 13:51:00;;;;;;;6.57;4.17;;;8.30;99.90;;;;;;5095715;28;20157;-71
2022/12/26 13:53:36;;;;;;;7.97;4.73;;;8.30;99.90;;;;;;5096959;28;20236;-69
2022/12/26 13:56:14;;;;;;;5.20;4.70;;;8.20;99.90;;;;;;5095965;28;20153;-70
2022/12/26 13:59:08;;;;;;;7.50;5.13;;;8.30;99.90;;;;;;5097481;28;20193;-68
2022/12/26 14:02:07;;;;;;;6.63;5.93;;;8.30;99.90;;;;;;5094294;28;20161;-67
2022/12/26 14:04:55;;;;;;;8.30;6.60;;;8.20;99.90;;;;;;5095608;28;20166;-68
2022/12/26 14:07:37;;;;;;;8.33;7.13;;;8.20;99.90;;;;;;5095191;28;20193;-69
2022/12/26 14:10:32;;;;;;;9.27;6.30;;;8.30;99.90;;;;;;5097581;28;20246;-66
2022/12/26 14:13:19;;;;;;;12.47;8.70;;;8.30;99.90;;;;;;5099477;28;20287;-67
2022/12/26 14:16:04;;;;;;;12.20;9.23;;;8.30;99.90;;;;;;5094838;28;20273;-67
2022/12/26 14:18:36;;;;;;;12.73;10.27;;;8.30;99.90;;;;;;5097218;28;20283;-72
2022/12/26 14:21:44;;;;;;;18.40;12.33;;;8.30;99.90;;;;;;5101227;28;20169;-74
2022/12/26 14:24:11;;;;;;;16.47;12.27;;;8.30;99.90;;;;;;5097060;28;20241;-67
2022/12/26 14:27:35;;;;;;;21.03;13.00;;;8.30;99.90;;;;;;5096441;28;20169;-66
2022/12/26 14:30:06;;;;;;;16.90;11.73;;;8.40;99.90;;;;;;5024416;28;20206;-67
2022/12/26 14:33:00;;;;;;;14.23;10.33;;;8.40;99.90;;;;;;5083129;28;20244;-67
2022/12/26 14:35:55;;;;;;;17.47;11.13;;;8.30;99.90;;;;;;5095473;28;20189;-66
2022/12/26 14:38:50;;;;;;;17.17;10.77;;;8.30;99.90;;;;;;5095490;28;20201;-69
2022/12/26 14:44:28;;;;;;;10.43;9.33;;;8.30;99.90;;;;;;5094901;28;20180;-66
2022/12/26 14:46:57;;;;;;;11.97;9.27;;;8.30;99.90;;;;;;5086156;28;20185;-66
2022/12/26 14:49:32;;;;;;;14.33;9.60;;;8.20;99.90;;;;;;5094624;28;20562;-67
2022/12/26 14:52:20;;;;;;;14.57;8.93;;;8.20;99.90;;;;;;5094576;28;20187;-66
2022/12/26 14:54:46;;;;;;;13.73;8.00;;;8.20;99.90;;;;;;5094157;28;20207;-65
2022/12/26 14:57:38;;;;;;;11.80;6.83;;;8.20;99.90;;;;;;5092849;28;20273;-66
2022/12/26 15:00:32;;;;;;;11.67;6.53;;;8.10;99.90;;;;;;5094750;28;20620;-65
2022/12/26 15:02:58;;;;;;;7.57;5.60;;;8.00;99.90;;;;;;5091964;28;20205;-69
2022/12/26 15:05:40;;;;;;;11.37;6.83;;;7.90;99.90;;;;;;5096061;28;20171;-68
2022/12/26 15:08:15;;;;;;;9.40;6.13;;;7.90;99.90;;;;;;5093881;28;20193;-66
2022/12/26 15:11:02;;;;;;;10.23;6.10;;;7.80;99.90;;;;;;5092916;28;20173;-67
2022/12/26 15:13:51;;;;;;;9.33;6.57;;;7.70;99.90;;;;;;5094195;28;20633;-66
2022/12/26 15:16:20;;;;;;;7.03;6.00;;;7.70;99.90;;;;;;5093712;28;20189;-68
2022/12/26 15:19:14;;;;;;;11.37;6.10;;;7.70;99.90;;;;;;5086173;28;20283;-66
2022/12/26 15:21:40;;;;;;;8.33;6.07;;;7.60;99.90;;;;;;5092420;28;20223;-67
2022/12/26 15:24:38;;;;;;;8.27;5.80;;;7.60;99.90;;;;;;5082723;28;20181;-67
2022/12/26 15:27:15;;;;;;;14.80;6.30;;;7.60;99.90;;;;;;5073793;28;20170;-67
2022/12/26 15:30:07;;;;;;;11.77;6.10;;;7.60;99.90;;;;;;5080380;28;20552;-67
2022/12/26 15:32:54;;;;;;;16.73;6.40;;;7.60;99.90;;;;;;5057964;28;20197;-68
2022/12/26 15:36:04;;;;;;;11.73;6.47;;;7.50;99.90;;;;;;5074581;28;20165;-70
2022/12/26 15:38:48;;;;;;;10.27;5.70;;;7.50;99.90;;;;;;5064068;28;20205;-68